createdAt,value
2022-09-12T00:01:25.019Z,99842.62
2022-09-12T00:04:49.917Z,99843.39
2022-09-12T00:07:24.769Z,99840.95
2022-09-12T00:10:34.505Z,99840.52
2022-09-12T00:13:06.061Z,99839.38
2022-09-12T00:15:39.741Z,99836.16
2022-09-12T00:18:13.033Z,99839.48
2022-09-12T00:20:43.664Z,99837.38
2022-09-12T00:23:14.128Z,99837.37
2022-09-12T00:25:45.485Z,99838.86
2022-09-12T00:28:20.152Z,99836.64
2022-09-12T00:30:54.478Z,99833.88
2022-09-12T00:33:24.924Z,99836.66
2022-09-12T00:35:54.693Z,99837.26
2022-09-12T00:38:23.434Z,99838.48
2022-09-12T00:40:52.206Z,99834.73
2022-09-12T00:43:38.586Z,99835.41
2022-09-12T00:46:21.907Z,99831.11
2022-09-12T00:48:56.837Z,99827.42
2022-09-12T00:51:26.042Z,99825.29
2022-09-12T00:53:57.268Z,99826.81
2022-09-12T00:56:29.911Z,99822.27
2022-09-12T00:59:03.943Z,99827.19
2022-09-12T01:01:33.535Z,99827.97
2022-09-12T01:04:04.016Z,99829.48
2022-09-12T01:06:39.831Z,99831.02
2022-09-12T01:09:15.582Z,99825.44
2022-09-12T01:11:47.806Z,99824.81
2022-09-12T01:14:20.978Z,99825.67
2022-09-12T01:16:51.337Z,99825.95
2022-09-12T01:20:06.643Z,99825.02
2022-09-12T01:22:57.135Z,99824.52
2022-09-12T01:25:38.673Z,99819.48
2022-09-12T01:28:33.370Z,99820.30
2022-09-12T01:31:08.987Z,99815.77
2022-09-12T01:33:53.120Z,99813.83
2022-09-12T01:36:35.291Z,99815.92
2022-09-12T01:39:13.112Z,99815.66
2022-09-12T01:41:53.409Z,99817.56
2022-09-12T01:44:34.246Z,99821.45
2022-09-12T01:47:10.228Z,99823.66
2022-09-12T01:49:49.771Z,99825.16
2022-09-12T01:52:24.359Z,99829.04
2022-09-12T01:55:04.534Z,99832.57
2022-09-12T01:57:44.686Z,99833.33
2022-09-12T02:00:14.685Z,99834.77
2022-09-12T02:02:52.410Z,99834.27
2022-09-12T02:05:30.630Z,99830.99
2022-09-12T02:08:06.748Z,99834.73
2022-09-12T02:10:42.307Z,99834.64
2022-09-12T02:13:18.307Z,99835.73
2022-09-12T02:15:57.864Z,99836.38
2022-09-12T02:18:29.663Z,99841.80
2022-09-12T02:20:59.698Z,99841.55
2022-09-12T02:23:35.653Z,99845.92
2022-09-12T02:26:10.588Z,99844.60
2022-09-12T02:28:41.890Z,99849.27
2022-09-12T02:31:21.392Z,99848.59
2022-09-12T02:34:08.911Z,99850.58
2022-09-12T02:36:50.059Z,99848.89
2022-09-12T02:39:23.757Z,99848.97
2022-09-12T02:41:55.623Z,99851.55
2022-09-12T02:44:27.040Z,99850.02
2022-09-12T02:47:04.452Z,99851.59
2022-09-12T02:49:33.599Z,99850.50
2022-09-12T02:52:03.535Z,99852.19
2022-09-12T02:54:32.528Z,99851.30
2022-09-12T02:57:08.181Z,99850.79
2022-09-12T02:59:37.191Z,99849.76
2022-09-12T03:02:18.916Z,99853.38
2022-09-12T03:05:07.816Z,99852.20
2022-09-12T03:07:54.450Z,99854.79
2022-09-12T03:10:32.871Z,99853.80
2022-09-12T03:13:17.906Z,99855.35
2022-09-12T03:15:57.422Z,99856.21
2022-09-12T03:18:36.870Z,99861.92
2022-09-12T03:21:12.871Z,99861.88
2022-09-12T03:23:50.576Z,99859.04
2022-09-12T03:26:25.972Z,99861.77
2022-09-12T03:28:56.560Z,99865.58
2022-09-12T03:31:25.889Z,99869.89
2022-09-12T03:33:55.272Z,99867.23
2022-09-12T03:36:27.213Z,99875.10
2022-09-12T03:38:56.471Z,99876.76
2022-09-12T03:41:25.523Z,99875.93
2022-09-12T03:43:56.455Z,99877.65
2022-09-12T03:46:25.664Z,99881.83
2022-09-12T03:48:54.397Z,99885.48
2022-09-12T03:51:23.527Z,99886.79
2022-09-12T03:53:52.405Z,99888.80
2022-09-12T03:56:21.192Z,99887.11
2022-09-12T03:58:49.934Z,99890.34
2022-09-12T04:01:22.091Z,99889.85
2022-09-12T04:03:52.125Z,99888.48
2022-09-12T04:06:22.949Z,99891.36
2022-09-12T04:08:53.575Z,99890.56
2022-09-12T04:11:23.343Z,99890.83
2022-09-12T04:13:52.115Z,99893.71
2022-09-12T04:16:21.254Z,99897.23
2022-09-12T04:18:50.132Z,99897.80
2022-09-12T04:21:21.651Z,99899.20
2022-09-12T04:23:51.520Z,99903.70
2022-09-12T04:26:21.294Z,99909.35
2022-09-12T04:28:55.388Z,99908.33
2022-09-12T04:31:24.960Z,99910.71
2022-09-12T04:34:05.410Z,99910.99
2022-09-12T04:36:34.205Z,99913.30
2022-09-12T04:39:04.244Z,99910.86
2022-09-12T04:41:35.278Z,99918.82
2022-09-12T04:44:06.461Z,99917.64
2022-09-12T04:46:38.575Z,99920.11
2022-09-12T04:49:07.832Z,99920.83
2022-09-12T04:51:38.813Z,99921.48
2022-09-12T04:54:09.233Z,99924.32
2022-09-12T04:56:39.985Z,99922.15
2022-09-12T04:59:10.527Z,99922.90
2022-09-12T05:01:39.943Z,99928.46
2022-09-12T05:04:10.933Z,99924.53
2022-09-12T05:06:41.156Z,99925.70
2022-09-12T05:09:13.597Z,99926.17
2022-09-12T05:12:03.832Z,99930.66
2022-09-12T05:14:34.038Z,99934.04
2022-09-12T05:17:04.016Z,99936.42
2022-09-12T05:19:42.815Z,99938.38
2022-09-12T05:22:11.575Z,99938.23
2022-09-12T05:24:46.177Z,99937.98
2022-09-12T05:27:17.438Z,99933.58
2022-09-12T05:29:46.111Z,99932.64
2022-09-12T05:32:14.862Z,99928.43
2022-09-12T05:34:43.631Z,99929.48
2022-09-12T05:37:12.541Z,99923.53
2022-09-12T05:39:42.007Z,99927.42
2022-09-12T05:42:11.638Z,99926.33
2022-09-12T05:44:41.107Z,99926.45
2022-09-12T05:47:12.347Z,99927.65
2022-09-12T05:49:41.154Z,99921.30
2022-09-12T05:52:09.973Z,99921.77
2022-09-12T05:54:38.756Z,99923.80
2022-09-12T05:57:07.559Z,99923.74
2022-09-12T05:59:36.966Z,99925.99
2022-09-12T06:02:06.310Z,99931.79
2022-09-12T06:04:35.170Z,99934.23
2022-09-12T06:07:04.430Z,99934.18
2022-09-12T06:09:33.641Z,99937.09
2022-09-12T06:12:03.029Z,99940.48
2022-09-12T06:14:32.405Z,99943.58
2022-09-12T06:17:01.135Z,99945.71
2022-09-12T06:19:30.050Z,99942.05
2022-09-12T06:21:59.005Z,99939.80
2022-09-12T06:24:27.765Z,99940.44
2022-09-12T06:26:56.473Z,99938.17
2022-09-12T06:29:25.499Z,99935.56
2022-09-12T06:31:54.397Z,99941.23
2022-09-12T06:34:23.104Z,99942.38
2022-09-12T06:36:51.984Z,99941.73
2022-09-12T06:39:22.146Z,99940.00
2022-09-12T06:41:52.347Z,99941.85
2022-09-12T06:44:31.147Z,99940.59
2022-09-12T06:47:00.012Z,99941.71
2022-09-12T06:49:28.836Z,99944.72
2022-09-12T06:51:57.558Z,99942.80
2022-09-12T06:54:26.586Z,99942.48
2022-09-12T06:56:55.360Z,99946.09
2022-09-12T06:59:24.375Z,99943.25
2022-09-12T07:01:53.578Z,99946.30
2022-09-12T07:04:22.380Z,99948.94
2022-09-12T07:06:51.109Z,99944.81
2022-09-12T07:09:20.035Z,99947.42
2022-09-12T07:11:49.150Z,99948.71
2022-09-12T07:14:19.390Z,99951.44
2022-09-12T07:16:48.206Z,99957.27
2022-09-12T07:19:17.317Z,99955.81
2022-09-12T07:21:46.301Z,99963.86
2022-09-12T07:24:15.024Z,99965.42
2022-09-12T07:26:43.923Z,99962.41
2022-09-12T07:29:35.985Z,99966.92
2022-09-12T07:32:06.109Z,99970.95
2022-09-12T07:34:35.338Z,99974.17
2022-09-12T07:37:04.336Z,99975.81
2022-09-12T07:39:33.065Z,99978.75
2022-09-12T07:42:02.167Z,99985.60
2022-09-12T07:44:32.531Z,99986.17
2022-09-12T07:47:01.414Z,99982.11
2022-09-12T07:49:30.375Z,99983.80
2022-09-12T07:51:59.190Z,99984.56
2022-09-12T07:54:27.907Z,99986.92
2022-09-12T07:56:56.957Z,99988.86
2022-09-12T07:59:50.951Z,99985.40
2022-09-12T08:02:17.503Z,99987.92
2022-09-12T08:04:47.980Z,99986.52
2022-09-12T08:07:18.786Z,99992.71
2022-09-12T08:09:47.697Z,99995.51
2022-09-12T08:12:17.325Z,99992.54
2022-09-12T08:14:45.983Z,99993.89
2022-09-12T08:17:14.742Z,99994.30
2022-09-12T08:19:44.407Z,99997.65
2022-09-12T08:22:13.244Z,99997.30
2022-09-12T08:24:41.934Z,99998.05
2022-09-12T08:27:10.613Z,100000.16
2022-09-12T08:29:39.509Z,100005.59
2022-09-12T08:32:08.382Z,100003.66
2022-09-12T08:34:37.109Z,100006.05
2022-09-12T08:37:06.463Z,100002.63
2022-09-12T08:39:35.316Z,100008.13
2022-09-12T08:42:06.047Z,100007.63
2022-09-12T08:44:54.133Z,100012.42
2022-09-12T08:47:28.650Z,100008.98
2022-09-12T08:50:06.203Z,100008.60
2022-09-12T08:52:39.684Z,100004.21
2022-09-12T08:55:23.180Z,100009.62
2022-09-12T08:57:52.227Z,100005.88
2022-09-12T09:00:21.516Z,100005.52
2022-09-12T09:03:08.061Z,100014.56
2022-09-12T09:05:49.468Z,100015.73
2022-09-12T09:08:35.641Z,100017.29
2022-09-12T09:11:18.833Z,100017.34
2022-09-12T09:14:17.326Z,100018.88
2022-09-12T09:16:50.368Z,100020.95
2022-09-12T09:19:25.008Z,100022.75
2022-09-12T09:21:56.950Z,100019.73
2022-09-12T09:24:31.122Z,100024.30
2022-09-12T09:27:11.090Z,100023.98
2022-09-12T09:29:55.941Z,100024.14
2022-09-12T09:32:28.440Z,100024.31
2022-09-12T09:34:57.109Z,100023.20
2022-09-12T09:37:35.427Z,100022.34
2022-09-12T09:40:12.810Z,100022.19
2022-09-12T09:42:50.936Z,100019.73
2022-09-12T09:45:23.649Z,100020.05
2022-09-12T09:47:57.310Z,100018.49
2022-09-12T09:50:26.509Z,100012.80
2022-09-12T09:53:00.131Z,100015.63
2022-09-12T09:55:38.141Z,100013.59
2022-09-12T09:58:07.193Z,100010.02
2022-09-12T10:00:38.491Z,100015.14
2022-09-12T10:03:38.724Z,100016.63
2022-09-12T10:06:25.946Z,100020.50
2022-09-12T10:09:18.385Z,100019.08
2022-09-12T10:11:48.233Z,100018.61
2022-09-12T10:14:34.689Z,100016.83
2022-09-12T10:17:19.873Z,100023.60
2022-09-12T10:20:04.555Z,100026.46
2022-09-12T10:22:39.168Z,100026.86
2022-09-12T10:25:16.554Z,100029.23
2022-09-12T10:27:52.289Z,100035.29
2022-09-12T10:30:24.427Z,100034.03
2022-09-12T10:32:54.981Z,100028.50
2022-09-12T10:35:30.009Z,100033.77
2022-09-12T10:38:01.882Z,100032.77
2022-09-12T10:40:36.125Z,100034.16
2022-09-12T10:43:18.324Z,100032.31
2022-09-12T10:45:47.049Z,100033.08
2022-09-12T10:48:28.317Z,100034.88
2022-09-12T10:50:58.461Z,100036.19
2022-09-12T10:53:34.171Z,100041.08
2022-09-12T10:56:08.381Z,100040.85
2022-09-12T10:59:07.271Z,100048.74
2022-09-12T11:01:41.293Z,100046.98
2022-09-12T11:04:27.817Z,100052.77
2022-09-12T11:07:23.043Z,100047.36
2022-09-12T11:09:59.701Z,100049.61
2022-09-12T11:12:37.556Z,100046.98
2022-09-12T11:15:26.301Z,100047.45
2022-09-12T11:18:00.628Z,100046.08
2022-09-12T11:21:03.551Z,100042.12
2022-09-12T11:24:06.634Z,100043.95
2022-09-12T11:26:50.734Z,100045.41
2022-09-12T11:29:29.340Z,100046.81
2022-09-12T11:32:32.774Z,100052.48
2022-09-12T11:35:16.617Z,100047.76
2022-09-12T11:38:10.326Z,100048.88
2022-09-12T11:40:44.335Z,100044.61
2022-09-12T11:43:23.619Z,100041.02
2022-09-12T11:45:53.987Z,100040.12
2022-09-12T11:48:38.381Z,100035.07
2022-09-12T11:51:16.699Z,100033.98
2022-09-12T11:53:54.499Z,100034.34
2022-09-12T11:56:23.619Z,100027.73
2022-09-12T11:58:58.671Z,100024.36
2022-09-12T12:01:33.834Z,100028.15
2022-09-12T12:04:11.470Z,100027.52
2022-09-12T12:06:52.542Z,100026.18
2022-09-12T12:09:21.631Z,100025.61
2022-09-12T12:11:56.643Z,100024.40
2022-09-12T12:14:31.574Z,100027.61
2022-09-12T12:17:00.498Z,100032.15
2022-09-12T12:19:35.160Z,100035.19
2022-09-12T12:22:07.278Z,100031.70
2022-09-12T12:24:54.009Z,100035.51
2022-09-12T12:27:44.494Z,100032.30
2022-09-12T12:31:00.449Z,100034.73
2022-09-12T12:33:47.239Z,100039.95
2022-09-12T12:36:35.139Z,100040.89
2022-09-12T12:39:47.652Z,100043.08
2022-09-12T12:43:03.023Z,100043.86
2022-09-12T12:46:10.161Z,100044.08
2022-09-12T12:48:57.336Z,100033.56
2022-09-12T12:52:04.708Z,100032.05
2022-09-12T12:54:50.839Z,100029.23
2022-09-12T12:57:29.290Z,100028.02
2022-09-12T13:00:03.927Z,100031.20
2022-09-12T13:02:37.140Z,100030.11
2022-09-12T13:05:19.889Z,100037.44
2022-09-12T13:07:57.300Z,100043.05
2022-09-12T13:10:28.746Z,100041.25
2022-09-12T13:13:01.281Z,100047.74
2022-09-12T13:15:48.796Z,100045.83
2022-09-12T13:18:24.923Z,100047.05
2022-09-12T13:21:03.303Z,100046.79
2022-09-12T13:23:33.452Z,100047.23
2022-09-12T13:26:04.615Z,100048.25
2022-09-12T13:28:33.406Z,100050.25
2022-09-12T13:31:12.004Z,100049.00
2022-09-12T13:33:46.813Z,100049.95
2022-09-12T13:36:36.999Z,100051.16
2022-09-12T13:39:21.848Z,100052.60
2022-09-12T13:42:07.932Z,100052.81
2022-09-12T13:44:42.749Z,100048.34
2022-09-12T13:47:21.391Z,100053.52
2022-09-12T13:49:50.621Z,100049.33
2022-09-12T13:52:23.563Z,100046.86
2022-09-12T13:54:56.422Z,100049.17
2022-09-12T13:57:31.779Z,100047.19
2022-09-12T14:00:12.456Z,100049.26
2022-09-12T14:02:41.735Z,100046.80
2022-09-12T14:05:21.665Z,100043.65
2022-09-12T14:07:55.858Z,100044.55
2022-09-12T14:10:32.541Z,100046.75
2022-09-12T14:13:08.037Z,100046.60
2022-09-12T14:15:38.321Z,100047.23
2022-09-12T14:18:24.207Z,100046.02
2022-09-12T14:20:59.342Z,100043.35
2022-09-12T14:23:31.947Z,100043.71
2022-09-12T14:26:06.161Z,100045.46
2022-09-12T14:28:36.969Z,100043.63
2022-09-12T14:31:07.291Z,100043.77
2022-09-12T14:33:48.308Z,100050.08
2022-09-12T14:36:22.961Z,100052.56
2022-09-12T14:38:52.745Z,100053.52
2022-09-12T14:41:26.763Z,100051.36
2022-09-12T14:44:01.045Z,100053.90
2022-09-12T14:46:33.674Z,100057.10
2022-09-12T14:49:07.984Z,100058.17
2022-09-12T14:51:39.946Z,100057.70
2022-09-12T14:54:35.815Z,100056.15
2022-09-12T14:57:06.532Z,100053.28
2022-09-12T14:59:41.941Z,100052.99
2022-09-12T15:02:24.759Z,100053.27
2022-09-12T15:05:14.171Z,100050.48
2022-09-12T15:07:49.798Z,100055.18
2022-09-12T15:10:30.874Z,100052.27
2022-09-12T15:13:42.622Z,100054.86
2022-09-12T15:16:27.320Z,100057.59
2022-09-12T15:18:56.383Z,100059.42
2022-09-12T15:21:37.334Z,100064.77
2022-09-12T15:24:11.647Z,100064.70
2022-09-12T15:26:43.143Z,100059.11
2022-09-12T15:29:15.781Z,100059.02
2022-09-12T15:31:47.494Z,100060.45
2022-09-12T15:34:16.301Z,100061.48
2022-09-12T15:36:45.100Z,100066.05
2022-09-12T15:39:14.098Z,100065.98
2022-09-12T15:41:44.843Z,100069.34
2022-09-12T15:44:16.390Z,100069.09
2022-09-12T15:46:45.345Z,100071.13
2022-09-12T15:49:14.053Z,100067.39
2022-09-12T15:51:42.697Z,100067.45
2022-09-12T15:54:14.243Z,100067.07
2022-09-12T15:56:43.511Z,100071.02
2022-09-12T15:59:16.063Z,100073.21
2022-09-12T16:01:55.394Z,100069.16
2022-09-12T16:04:27.516Z,100071.51
2022-09-12T16:06:57.027Z,100071.21
2022-09-12T16:09:25.818Z,100070.78
2022-09-12T16:11:54.766Z,100069.48
2022-09-12T16:14:29.852Z,100070.64
2022-09-12T16:16:58.817Z,100071.85
2022-09-12T16:19:27.821Z,100074.42
2022-09-12T16:21:56.790Z,100074.39
2022-09-12T16:24:25.705Z,100077.57
2022-09-12T16:26:56.870Z,100074.98
2022-09-12T16:29:30.087Z,100073.39
2022-09-12T16:31:58.863Z,100077.03
2022-09-12T16:34:27.724Z,100075.52
2022-09-12T16:36:56.973Z,100076.41
2022-09-12T16:39:25.831Z,100076.20
2022-09-12T16:41:54.509Z,100077.05
2022-09-12T16:44:23.341Z,100073.80
2022-09-12T16:46:52.386Z,100072.89
2022-09-12T16:49:21.618Z,100073.27
2022-09-12T16:51:50.369Z,100071.63
2022-09-12T16:54:19.054Z,100070.77
2022-09-12T16:56:49.158Z,100068.03
2022-09-12T16:59:20.273Z,100073.56
2022-09-12T17:01:49.107Z,100070.21
2022-09-12T17:04:21.667Z,100069.17
2022-09-12T17:06:52.204Z,100070.33
2022-09-12T17:09:21.822Z,100071.86
2022-09-12T17:11:52.728Z,100074.33
2022-09-12T17:14:22.642Z,100073.52
2022-09-12T17:16:52.185Z,100073.83
2022-09-12T17:19:23.916Z,100075.63
2022-09-12T17:21:53.093Z,100070.80
2022-09-12T17:24:22.917Z,100071.38
2022-09-12T17:26:53.073Z,100071.27
2022-09-12T17:29:23.466Z,100077.55
2022-09-12T17:31:54.555Z,100082.39
2022-09-12T17:34:43.790Z,100079.17
2022-09-12T17:37:16.048Z,100082.55
2022-09-12T17:39:50.766Z,100080.52
2022-09-12T17:42:22.259Z,100085.36
2022-09-12T17:44:55.976Z,100085.06
2022-09-12T17:47:28.335Z,100088.45
2022-09-12T17:50:27.426Z,100095.35
2022-09-12T17:52:53.242Z,100092.09
2022-09-12T17:55:25.368Z,100098.59
2022-09-12T17:57:58.635Z,100095.31
2022-09-12T18:00:45.328Z,100099.48
2022-09-12T18:03:17.852Z,100099.85
2022-09-12T18:05:51.118Z,100102.16
2022-09-12T18:08:24.009Z,100104.61
2022-09-12T18:11:04.484Z,100100.43
2022-09-12T18:13:40.046Z,100099.73
2022-09-12T18:16:15.594Z,100102.14
2022-09-12T18:18:48.188Z,100099.68
2022-09-12T18:21:20.624Z,100098.10
2022-09-12T18:23:52.832Z,100094.96
2022-09-12T18:26:27.403Z,100094.92
2022-09-12T18:29:00.109Z,100092.83
2022-09-12T18:31:33.712Z,100085.87
2022-09-12T18:34:06.422Z,100091.61
2022-09-12T18:36:39.026Z,100091.08
2022-09-12T18:39:11.717Z,100092.71
2022-09-12T18:42:16.388Z,100095.96
2022-09-12T18:47:58.679Z,100095.36
2022-09-12T18:50:38.499Z,100095.31
2022-09-12T18:53:11.623Z,100099.19
2022-09-12T18:55:43.736Z,100101.39
2022-09-12T18:58:16.372Z,100105.71
2022-09-12T19:00:49.711Z,100103.08
2022-09-12T19:03:22.175Z,100102.33
2022-09-12T19:05:54.923Z,100099.45
2022-09-12T19:08:27.065Z,100097.95
2022-09-12T19:10:59.950Z,100101.98
2022-09-12T19:13:33.023Z,100101.59
2022-09-12T19:16:09.565Z,100101.94
2022-09-12T19:18:42.900Z,100098.38
2022-09-12T19:21:25.421Z,100098.79
2022-09-12T19:24:01.373Z,100095.48
2022-09-12T19:26:34.412Z,100092.80
2022-09-12T19:29:07.446Z,100090.29
2022-09-12T19:31:39.788Z,100091.56
2022-09-12T19:34:13.645Z,100089.82
2022-09-12T19:36:47.531Z,100089.16
2022-09-12T19:39:20.781Z,100084.94
2022-09-12T19:41:53.272Z,100080.69
2022-09-12T19:44:27.686Z,100084.84
2022-09-12T19:46:59.624Z,100085.58
2022-09-12T19:49:31.579Z,100082.85
2022-09-12T19:52:03.954Z,100085.34
2022-09-12T19:54:35.970Z,100082.26
2022-09-12T19:57:08.119Z,100085.28
2022-09-12T19:59:40.247Z,100082.34
2022-09-12T20:02:12.312Z,100078.39
2022-09-12T20:04:44.503Z,100080.25
2022-09-12T20:07:16.642Z,100080.19
2022-09-12T20:09:48.963Z,100079.98
2022-09-12T20:12:20.941Z,100083.23
2022-09-12T20:14:52.801Z,100085.37
2022-09-12T20:17:24.760Z,100083.95
2022-09-12T20:19:59.117Z,100083.00
2022-09-12T20:22:31.130Z,100085.10
2022-09-12T20:25:03.102Z,100078.65
2022-09-12T20:27:35.000Z,100081.64
2022-09-12T20:30:09.412Z,100079.45
2022-09-12T20:32:41.957Z,100079.35
2022-09-12T20:35:14.446Z,100075.08
2022-09-12T20:37:47.029Z,100074.84
2022-09-12T20:40:20.219Z,100072.69
2022-09-12T20:42:52.294Z,100071.77
2022-09-12T21:55:12.477Z,100035.98
2022-09-12T23:02:12.451Z,100023.58
